< Typhoon 195226 1952 Season Typhoon 195301 >
Typhoon 195227 (HESTER)
General InformationTrack Information on Google Maps || Disaster Info.ResourceGoogle EarthGE AnimationAtom FeedGeoJSON
Detalied Best Track (Time Zone = UTC)
Year Month Day Hour Lat. Long. Pressure (hPa) Wind (kt) Class Image Chart
1952 12 27 18 7.0 167.0 1000 0 2 -- Chart
1952 12 28 00 7.5 167.0 998 0 9 -- Chart
1952 12 28 06 7.8 167.0 985 0 9 -- Chart
1952 12 28 12 8.0 165.9 985 0 9 -- Chart
1952 12 28 18 8.5 164.8 985 0 9 -- Chart
1952 12 29 00 9.0 163.5 985 0 9 -- Chart
1952 12 29 06 9.8 160.7 985 0 9 -- Chart
1952 12 29 12 10.0 159.0 980 0 9 -- Chart
1952 12 29 18 10.3 157.4 980 0 9 -- Chart
1952 12 30 00 10.6 155.2 975 0 9 -- Chart
1952 12 30 06 10.9 152.2 960 0 9 -- Chart
1952 12 30 12 11.1 150.0 960 0 9 -- Chart
1952 12 30 18 11.1 148.0 955 0 9 -- Chart
1952 12 31 00 11.5 145.7 955 0 9 -- Chart
1952 12 31 06 11.6 143.4 955 0 9 -- Chart
1952 12 31 12 11.8 141.3 960 0 9 -- Chart
1952 12 31 18 12.8 139.5 960 0 9 -- Chart
1953 1 1 00 13.5 138.4 955 0 9 -- Chart
1953 1 1 06 14.1 137.3 950 0 9 -- Chart
1953 1 1 12 14.8 136.2 950 0 9 -- Chart
1953 1 1 18 15.3 135.2 955 0 9 -- Chart
1953 1 2 00 16.4 134.9 955 0 9 -- Chart
1953 1 2 06 17.8 134.3 955 0 9 -- Chart
1953 1 2 12 18.7 134.3 955 0 9 -- Chart
1953 1 2 18 19.7 135.2 960 0 9 -- Chart
1953 1 3 00 20.2 136.2 960 0 9 -- Chart
1953 1 3 06 21.4 137.9 965 0 9 -- Chart
1953 1 3 12 22.0 139.5 970 0 9 -- Chart
1953 1 3 18 22.1 142.8 975 0 9 -- Chart
1953 1 4 00 22.6 144.9 990 0 9 -- Chart
1953 1 4 06 23.1 148.3 995 0 9 -- Chart
1953 1 4 12 23.2 152.0 995 0 9 -- Chart
1953 1 4 18 23.5 156.4 995 0 9 -- Chart
1953 1 5 00 23.6 159.6 1000 0 9 -- Chart
1953 1 5 06 23.5 162.8 1000 0 9 -- Chart
1953 1 5 12 24.0 167.0 1000 0 2 -- Chart
1953 1 5 18 25.0 169.8 1000 0 2 -- Chart
1953 1 6 00 26.0 172.0 1002 0 6 -- Chart
1953 1 6 06 26.0 176.0 1006 0 6 -- Chart
Japan Meteorological Agency Best Track Data | Correction Date : 1989-06-01
< Typhoon 195226 1952 Season Typhoon 195301 >

Help